Time;durP1;ratioP1;P1;durP2;ratioP2;P2;SDS_P1;SDS_P2;PMS_P1;PMS_P2;Temp;Humidity;BMP_temperature;BMP_pressure;BME280_temperature;BME280_humidity;BME280_pressure;Samples;Min_cycle;Max_cycle;Signal;HPM_P1;HPM_P2
2023/09/04 00:01:50;;;;;;;2.55;2.33;;;17.90;75.90;;;;;;5036783;28;20467;-82
2023/09/04 00:04:16;;;;;;;3.20;2.80;;;17.90;75.80;;;;;;5036782;28;20041;-82
2023/09/04 00:06:41;;;;;;;3.42;2.58;;;17.90;75.70;;;;;;5050769;28;20029;-83
2023/09/04 00:09:07;;;;;;;3.78;2.45;;;17.90;75.70;;;;;;5052508;28;20820;-83
2023/09/04 00:11:32;;;;;;;2.92;2.38;;;17.90;75.60;;;;;;5051070;28;20096;-82
2023/09/04 00:13:58;;;;;;;2.33;2.00;;;18.00;75.40;;;;;;5049469;28;20090;-82
2023/09/04 00:16:24;;;;;;;2.80;2.40;;;18.00;75.30;;;;;;5051626;28;20028;-82
2023/09/04 00:18:49;;;;;;;3.00;2.35;;;18.00;75.20;;;;;;5050834;28;20037;-83
2023/09/04 00:21:15;;;;;;;3.00;2.70;;;18.00;75.20;;;;;;5048059;28;20534;-82
2023/09/04 00:23:41;;;;;;;2.75;2.50;;;18.00;75.30;;;;;;5050765;28;20047;-82
2023/09/04 00:26:06;;;;;;;4.57;2.70;;;17.90;75.20;;;;;;5051195;28;20025;-82
2023/09/04 00:28:32;;;;;;;4.10;2.80;;;17.90;75.20;;;;;;5051742;28;20029;-82
2023/09/04 00:30:58;;;;;;;3.10;2.60;;;17.90;75.30;;;;;;5045475;28;20051;-83
2023/09/04 00:33:23;;;;;;;3.58;2.63;;;17.90;75.50;;;;;;5050590;28;20118;-83
2023/09/04 00:35:49;;;;;;;2.53;2.33;;;17.90;75.50;;;;;;5032860;28;20539;-82
2023/09/04 00:38:15;;;;;;;3.22;2.60;;;17.90;75.50;;;;;;5047893;28;20143;-82
2023/09/04 00:40:41;;;;;;;3.70;2.65;;;17.80;75.50;;;;;;5049312;28;20025;-82
2023/09/04 00:43:07;;;;;;;4.07;2.90;;;17.80;75.70;;;;;;5048854;28;20104;-83
2023/09/04 00:45:34;;;;;;;3.35;2.97;;;17.80;75.70;;;;;;5052258;28;20017;-83
2023/09/04 00:48:01;;;;;;;3.97;2.97;;;17.80;75.90;;;;;;5049490;28;20032;-83
2023/09/04 00:50:27;;;;;;;4.43;2.90;;;17.70;75.80;;;;;;5048008;28;20032;-83
2023/09/04 00:52:58;;;;;;;3.38;2.50;;;17.70;75.90;;;;;;5049072;28;20116;-83
2023/09/04 00:55:25;;;;;;;4.32;3.13;;;17.80;75.80;;;;;;5050705;28;20017;-82
2023/09/04 00:57:52;;;;;;;3.35;2.67;;;17.80;75.80;;;;;;5049471;28;20446;-83
2023/09/04 01:00:21;;;;;;;4.35;3.17;;;17.70;75.80;;;;;;5048236;28;20095;-82
2023/09/04 01:02:48;;;;;;;4.65;3.35;;;17.70;76.10;;;;;;5031692;28;20025;-83
2023/09/04 01:05:14;;;;;;;4.13;2.90;;;17.70;76.30;;;;;;5047550;28;20021;-83
2023/09/04 01:07:43;;;;;;;3.90;3.13;;;17.70;76.30;;;;;;5050394;28;20051;-82
2023/09/04 01:10:10;;;;;;;5.35;3.30;;;17.70;76.40;;;;;;5032651;28;20098;-83
2023/09/04 01:12:45;;;;;;;3.05;2.50;;;17.70;76.50;;;;;;5034369;28;20032;-83
2023/09/04 01:15:11;;;;;;;4.60;3.10;;;17.70;76.50;;;;;;5047951;28;20688;-83
2023/09/04 01:17:37;;;;;;;3.92;3.10;;;17.60;77.20;;;;;;5049539;28;20033;-82
2023/09/04 01:20:27;;;;;;;3.67;3.38;;;17.50;76.70;;;;;;5049867;28;20475;-83
2023/09/04 01:22:55;;;;;;;5.13;3.90;;;17.50;76.90;;;;;;5032854;28;20017;-83
2023/09/04 01:25:38;;;;;;;4.05;3.30;;;17.50;77.30;;;;;;5050273;28;20458;-82
2023/09/04 01:28:16;;;;;;;4.10;3.70;;;17.50;77.40;;;;;;5049725;28;20025;-82
2023/09/04 01:31:20;;;;;;;3.90;3.28;;;17.50;77.40;;;;;;5035965;28;20082;-83
2023/09/04 01:33:50;;;;;;;5.55;3.65;;;17.50;77.50;;;;;;5021764;28;20080;-82
2023/09/04 01:36:16;;;;;;;4.40;3.65;;;17.40;77.80;;;;;;5050449;28;20112;-83
2023/09/04 01:38:45;;;;;;;4.68;4.00;;;17.40;77.90;;;;;;5031517;28;20064;-82
2023/09/04 01:41:10;;;;;;;4.03;3.63;;;17.40;78.10;;;;;;5054366;28;20024;-83
2023/09/04 01:43:36;;;;;;;4.63;4.05;;;17.30;78.30;;;;;;5049890;28;20021;-84
2023/09/04 01:46:01;;;;;;;5.65;4.20;;;17.30;78.60;;;;;;5050319;28;20031;-83
2023/09/04 01:48:27;;;;;;;5.30;4.00;;;17.30;79.00;;;;;;5048009;28;20017;-83
2023/09/04 01:50:54;;;;;;;4.45;3.90;;;17.20;79.20;;;;;;5051691;28;20021;-83
2023/09/04 01:53:20;;;;;;;4.60;4.05;;;17.20;79.30;;;;;;5049436;28;20055;-83
2023/09/04 01:55:45;;;;;;;4.47;3.70;;;17.20;79.50;;;;;;5050728;28;20442;-84
2023/09/04 01:58:11;;;;;;;4.43;3.58;;;17.20;79.60;;;;;;5048939;28;20020;-83
2023/09/04 02:00:37;;;;;;;5.10;4.22;;;17.20;79.60;;;;;;5049076;28;20039;-83
2023/09/04 02:03:03;;;;;;;3.92;3.53;;;17.10;79.80;;;;;;5029916;28;20543;-83
2023/09/04 02:05:29;;;;;;;6.05;4.28;;;17.10;79.70;;;;;;5049150;28;20096;-84
2023/09/04 02:07:54;;;;;;;6.25;4.25;;;17.20;79.70;;;;;;5050622;28;20025;-83
2023/09/04 02:10:22;;;;;;;4.97;4.43;;;17.10;79.70;;;;;;5036166;28;20040;-83
2023/09/04 02:12:48;;;;;;;4.78;4.07;;;17.10;79.70;;;;;;5035337;28;20056;-83
2023/09/04 02:15:14;;;;;;;5.50;4.30;;;17.10;79.90;;;;;;5036146;28;20060;-83
2023/09/04 02:17:39;;;;;;;5.68;4.70;;;17.10;80.00;;;;;;5049430;28;20033;-83
2023/09/04 02:20:06;;;;;;;5.15;4.28;;;17.10;80.10;;;;;;5049833;28;20953;-83
2023/09/04 02:22:31;;;;;;;6.93;4.78;;;17.00;80.10;;;;;;5030510;28;20475;-83
2023/09/04 02:24:57;;;;;;;7.00;5.00;;;17.00;80.10;;;;;;5048729;28;20017;-83
2023/09/04 02:27:22;;;;;;;4.82;4.20;;;17.00;80.20;;;;;;5045123;28;20353;-83
2023/09/04 02:29:48;;;;;;;4.55;3.95;;;17.00;80.20;;;;;;5046937;28;20041;-83
2023/09/04 02:32:14;;;;;;;5.85;4.68;;;17.00;80.20;;;;;;5062588;28;20272;-83
2023/09/04 02:34:40;;;;;;;5.97;4.57;;;17.00;80.40;;;;;;5041567;28;20025;-82
2023/09/04 02:37:06;;;;;;;5.20;4.20;;;16.90;80.50;;;;;;5047081;28;20090;-83
2023/09/04 02:39:31;;;;;;;5.28;4.63;;;16.90;80.50;;;;;;5038089;28;20391;-83
2023/09/04 02:41:57;;;;;;;6.55;5.70;;;16.90;80.50;;;;;;5051889;28;20025;-83
2023/09/04 02:44:22;;;;;;;6.68;5.18;;;16.90;80.60;;;;;;5049656;28;20529;-82
2023/09/04 02:46:48;;;;;;;7.20;6.30;;;17.00;80.60;;;;;;5048214;28;20032;-82
2023/09/04 02:49:13;;;;;;;7.55;5.82;;;16.90;80.60;;;;;;5046641;28;20032;-82
2023/09/04 02:51:39;;;;;;;6.57;5.63;;;16.90;80.50;;;;;;5035253;28;20048;-82
2023/09/04 02:54:04;;;;;;;7.03;5.97;;;17.00;80.50;;;;;;5049589;28;20506;-84
2023/09/04 02:56:30;;;;;;;6.93;5.40;;;16.90;80.40;;;;;;5048071;28;20028;-84
2023/09/04 02:58:56;;;;;;;5.93;4.75;;;16.90;80.40;;;;;;5050162;28;20021;-83
2023/09/04 03:01:21;;;;;;;6.50;5.30;;;16.90;80.40;;;;;;5043631;28;20667;-82
2023/09/04 03:03:47;;;;;;;7.18;5.80;;;16.90;80.40;;;;;;5031491;28;20110;-82
2023/09/04 03:06:12;;;;;;;6.50;5.30;;;16.90;80.40;;;;;;5049586;28;20021;-82
2023/09/04 03:08:38;;;;;;;6.07;5.43;;;16.90;80.40;;;;;;5045146;28;20045;-82
2023/09/04 03:11:10;;;;;;;7.50;4.82;;;16.90;80.50;;;;;;5049399;28;20025;-81
2023/09/04 03:13:39;;;;;;;6.05;5.30;;;16.90;80.60;;;;;;5046703;28;20037;-82
2023/09/04 03:16:08;;;;;;;6.07;5.13;;;16.80;80.80;;;;;;5029660;28;20028;-81
2023/09/04 03:18:34;;;;;;;5.43;4.07;;;16.80;80.80;;;;;;5048501;28;20380;-81
2023/09/04 03:21:01;;;;;;;7.95;5.72;;;16.90;80.70;;;;;;5048353;28;20108;-82
2023/09/04 03:23:27;;;;;;;5.68;5.07;;;16.80;80.80;;;;;;5059978;28;20028;-82
2023/09/04 03:25:53;;;;;;;6.03;5.07;;;16.80;80.90;;;;;;5048774;28;20025;-82
2023/09/04 03:28:18;;;;;;;7.25;5.55;;;16.80;80.90;;;;;;5043914;28;20075;-81
2023/09/04 03:30:44;;;;;;;6.72;5.15;;;16.90;81.00;;;;;;5047759;28;20047;-82
2023/09/04 03:33:09;;;;;;;6.50;5.30;;;16.80;81.00;;;;;;5049027;28;20077;-83
2023/09/04 03:35:35;;;;;;;8.38;5.65;;;16.80;81.00;;;;;;5031198;28;20013;-83
2023/09/04 03:38:00;;;;;;;7.47;6.10;;;16.80;81.00;;;;;;5042405;28;20055;-82
2023/09/04 03:40:29;;;;;;;6.38;5.78;;;16.80;81.00;;;;;;5045361;28;20086;-82
2023/09/04 03:42:55;;;;;;;7.63;6.03;;;16.80;81.00;;;;;;5047726;28;20470;-82
2023/09/04 03:45:21;;;;;;;7.35;6.45;;;16.80;81.20;;;;;;5040148;28;20430;-83
2023/09/04 03:47:48;;;;;;;8.00;6.55;;;16.80;81.40;;;;;;5047160;28;20057;-82
2023/09/04 03:50:13;;;;;;;5.80;5.20;;;16.70;81.50;;;;;;5033539;28;20291;-82
2023/09/04 03:52:40;;;;;;;7.25;6.55;;;16.70;81.60;;;;;;5047355;28;20056;-82
2023/09/04 03:55:07;;;;;;;7.53;6.47;;;16.70;81.80;;;;;;5048798;28;20033;-82
2023/09/04 03:57:35;;;;;;;6.60;5.90;;;16.60;81.80;;;;;;5044439;28;20029;-82
2023/09/04 04:00:01;;;;;;;6.90;5.72;;;16.60;81.90;;;;;;5028707;28;20033;-82
2023/09/04 04:02:27;;;;;;;6.95;6.25;;;16.60;82.00;;;;;;5047576;28;20028;-82
2023/09/04 04:04:52;;;;;;;7.88;6.70;;;16.60;82.10;;;;;;5034697;28;20029;-82
2023/09/04 04:07:18;;;;;;;7.65;6.15;;;16.50;82.10;;;;;;5052596;28;20464;-82
2023/09/04 04:09:47;;;;;;;8.50;6.32;;;16.60;82.20;;;;;;5048082;28;20022;-82
2023/09/04 04:12:13;;;;;;;7.05;5.65;;;16.50;82.10;;;;;;5046548;28;20075;-82
2023/09/04 04:14:39;;;;;;;6.20;5.55;;;16.50;82.10;;;;;;5038017;28;20159;-82
2023/09/04 04:17:04;;;;;;;7.25;6.10;;;16.50;82.10;;;;;;5044614;28;20507;-82
2023/09/04 04:19:30;;;;;;;6.55;5.80;;;16.50;82.00;;;;;;5051192;28;20075;-82
2023/09/04 04:21:56;;;;;;;6.78;5.90;;;16.60;81.80;;;;;;5044799;28;20415;-82
2023/09/04 04:24:21;;;;;;;7.07;5.20;;;16.60;81.70;;;;;;5053972;28;20420;-82
2023/09/04 04:26:47;;;;;;;8.35;6.00;;;16.60;81.70;;;;;;5037471;28;20031;-82
2023/09/04 04:29:12;;;;;;;6.80;5.82;;;16.60;81.60;;;;;;5053917;28;20064;-82
2023/09/04 04:31:39;;;;;;;6.68;5.28;;;16.60;81.60;;;;;;5028688;28;20511;-82
2023/09/04 04:34:04;;;;;;;7.60;6.03;;;16.60;81.70;;;;;;5048027;28;20021;-82
2023/09/04 04:36:30;;;;;;;5.95;5.35;;;16.50;81.60;;;;;;5047626;28;20036;-82
2023/09/04 04:38:56;;;;;;;5.68;5.03;;;16.60;81.60;;;;;;5047920;28;20299;-83
2023/09/04 04:41:21;;;;;;;5.65;5.05;;;16.50;81.40;;;;;;5049804;28;20106;-82
2023/09/04 04:43:47;;;;;;;6.47;5.65;;;16.50;81.40;;;;;;5052680;28;20029;-82
2023/09/04 04:46:15;;;;;;;6.75;6.05;;;16.50;81.30;;;;;;5047484;28;20021;-82
2023/09/04 04:48:40;;;;;;;6.70;4.97;;;16.50;81.30;;;;;;5051591;28;20037;-82
2023/09/04 04:51:07;;;;;;;6.35;5.57;;;16.50;81.30;;;;;;5053674;28;20601;-83
2023/09/04 04:53:33;;;;;;;5.10;4.50;;;16.50;81.20;;;;;;5036782;28;20095;-82
2023/09/04 04:56:00;;;;;;;6.30;5.35;;;16.50;81.20;;;;;;5048928;28;20116;-82
2023/09/04 04:58:25;;;;;;;6.38;5.70;;;16.50;81.30;;;;;;5051136;28;20029;-82
2023/09/04 05:00:51;;;;;;;6.63;5.53;;;16.40;81.30;;;;;;5051114;28;20091;-81
2023/09/04 05:03:16;;;;;;;5.90;5.18;;;16.50;81.40;;;;;;5051561;28;20021;-82
2023/09/04 05:05:46;;;;;;;8.05;5.97;;;16.40;81.40;;;;;;5033287;28;20048;-82
2023/09/04 05:08:12;;;;;;;5.72;5.13;;;16.40;81.50;;;;;;5049445;28;20104;-82
2023/09/04 05:10:37;;;;;;;6.68;5.68;;;16.40;81.50;;;;;;5051279;28;20335;-82
2023/09/04 05:13:03;;;;;;;6.63;5.60;;;16.40;81.70;;;;;;5049339;28;20354;-82
2023/09/04 05:15:29;;;;;;;7.57;6.03;;;16.40;81.80;;;;;;5040568;28;20387;-82
2023/09/04 05:17:54;;;;;;;7.43;5.68;;;16.40;82.00;;;;;;5050356;28;20036;-82
2023/09/04 05:20:20;;;;;;;6.93;5.47;;;16.40;82.00;;;;;;5035088;28;20051;-82
2023/09/04 05:22:45;;;;;;;6.30;5.43;;;16.40;81.90;;;;;;5053465;28;20284;-82
2023/09/04 05:25:12;;;;;;;7.97;5.28;;;16.40;81.90;;;;;;5065328;28;20029;-82
2023/09/04 05:27:38;;;;;;;6.40;5.68;;;16.40;82.00;;;;;;5038938;28;20021;-82
2023/09/04 05:30:04;;;;;;;5.78;5.00;;;16.60;82.20;;;;;;5052637;28;20083;-82
2023/09/04 05:32:30;;;;;;;6.50;5.20;;;17.30;81.10;;;;;;5040681;28;20767;-81
2023/09/04 05:34:56;;;;;;;7.00;4.88;;;17.70;79.50;;;;;;5049991;28;20024;-82
2023/09/04 05:37:22;;;;;;;6.05;5.45;;;17.70;77.80;;;;;;5057116;28;20111;-81
2023/09/04 05:39:48;;;;;;;6.13;5.53;;;17.60;77.70;;;;;;5049379;28;20101;-81
2023/09/04 05:42:13;;;;;;;6.28;5.25;;;17.30;78.20;;;;;;5038363;28;20025;-82
2023/09/04 05:44:39;;;;;;;5.68;5.07;;;17.20;78.80;;;;;;5032492;28;20186;-82
2023/09/04 05:47:05;;;;;;;6.57;5.30;;;17.10;79.40;;;;;;5034835;28;20465;-82
2023/09/04 05:49:30;;;;;;;6.55;5.75;;;17.00;79.80;;;;;;5047627;28;20021;-82
2023/09/04 05:51:56;;;;;;;5.63;5.00;;;16.90;80.10;;;;;;5047586;28;20033;-82
2023/09/04 05:54:23;;;;;;;7.18;6.00;;;16.90;80.40;;;;;;5050593;28;20025;-81
2023/09/04 05:56:49;;;;;;;7.13;6.00;;;16.80;80.90;;;;;;5044900;28;20751;-83
2023/09/04 05:59:15;;;;;;;7.88;6.13;;;17.00;81.10;;;;;;5035449;28;20033;-83
2023/09/04 06:01:41;;;;;;;7.03;5.78;;;17.70;80.60;;;;;;5052758;28;20021;-83
2023/09/04 06:04:06;;;;;;;7.55;6.07;;;18.80;77.30;;;;;;5054294;28;20506;-83
2023/09/04 06:06:32;;;;;;;6.10;5.50;;;19.40;74.70;;;;;;5037991;28;20032;-81
2023/09/04 06:08:57;;;;;;;7.90;5.72;;;19.90;72.50;;;;;;5054033;28;20534;-82
2023/09/04 06:11:23;;;;;;;7.72;6.18;;;20.40;71.20;;;;;;5046877;28;20037;-82
2023/09/04 06:13:49;;;;;;;5.20;4.70;;;21.10;69.30;;;;;;5050142;28;20128;-81
2023/09/04 06:16:18;;;;;;;7.05;4.97;;;21.80;67.40;;;;;;5047919;28;20376;-81
2023/09/04 06:18:44;;;;;;;6.10;5.20;;;22.50;65.50;;;;;;5050037;28;20098;-82
2023/09/04 06:21:10;;;;;;;5.10;4.60;;;23.10;63.20;;;;;;5052787;28;20032;-81
2023/09/04 06:23:35;;;;;;;6.07;4.90;;;23.10;62.60;;;;;;5055480;28;20024;-82
2023/09/04 06:26:04;;;;;;;6.68;5.15;;;23.60;61.30;;;;;;5055871;28;20033;-81
2023/09/04 06:28:29;;;;;;;5.95;4.43;;;23.90;60.30;;;;;;5053490;28;20475;-88
2023/09/04 06:30:56;;;;;;;6.68;4.85;;;24.30;59.60;;;;;;5047665;28;20108;-87
2023/09/04 06:33:25;;;;;;;4.78;4.05;;;24.50;58.40;;;;;;5056426;28;20040;-86
2023/09/04 06:35:51;;;;;;;7.40;4.82;;;25.10;57.90;;;;;;5050989;28;20120;-86
2023/09/04 06:38:17;;;;;;;6.05;4.55;;;25.40;56.90;;;;;;5068400;28;20597;-86
2023/09/04 06:40:43;;;;;;;4.97;3.78;;;25.80;56.60;;;;;;5054318;28;20029;-85
2023/09/04 06:43:10;;;;;;;5.80;4.15;;;26.50;56.30;;;;;;5054261;28;20049;-86
2023/09/04 06:45:37;;;;;;;5.80;4.20;;;27.20;55.00;;;;;;5052366;28;20029;-85
2023/09/04 06:48:07;;;;;;;4.60;3.55;;;27.40;53.90;;;;;;5056236;28;20032;-85
2023/09/04 06:50:32;;;;;;;4.88;4.00;;;28.00;53.10;;;;;;5037915;28;20154;-87
2023/09/04 06:52:58;;;;;;;4.35;3.92;;;28.10;53.00;;;;;;5057947;28;20048;-85
2023/09/04 06:55:23;;;;;;;3.97;3.42;;;28.50;51.70;;;;;;5053657;28;20024;-85
2023/09/04 06:57:49;;;;;;;5.70;3.22;;;28.90;51.60;;;;;;5048770;28;20055;-86
2023/09/04 07:00:16;;;;;;;5.25;4.00;;;29.00;50.80;;;;;;5030429;28;20025;-85
2023/09/04 07:02:41;;;;;;;3.85;3.45;;;29.00;50.20;;;;;;5027529;28;20025;-85
2023/09/04 07:05:08;;;;;;;4.00;3.60;;;29.40;50.30;;;;;;5052143;28;20717;-86
2023/09/04 07:07:37;;;;;;;5.35;3.15;;;29.70;50.00;;;;;;5046823;28;20476;-86
2023/09/04 07:10:06;;;;;;;4.25;3.15;;;30.10;49.70;;;;;;5053250;28;20086;-87
2023/09/04 07:12:34;;;;;;;4.90;3.50;;;30.40;49.20;;;;;;5051384;28;20024;-85
2023/09/04 07:15:00;;;;;;;3.75;3.38;;;30.40;48.80;;;;;;5051310;28;20025;-87
2023/09/04 07:17:26;;;;;;;4.60;3.50;;;30.10;48.60;;;;;;5051326;28;20423;-88
2023/09/04 07:19:51;;;;;;;5.25;3.63;;;29.90;48.80;;;;;;5048594;28;20132;-87
2023/09/04 07:22:17;;;;;;;4.32;3.45;;;29.90;49.00;;;;;;5032952;28;20013;-85
2023/09/04 07:24:42;;;;;;;3.85;3.42;;;30.20;48.90;;;;;;5045323;28;20029;-86
2023/09/04 07:27:08;;;;;;;5.40;3.70;;;30.00;48.30;;;;;;5049027;28;20027;-86
2023/09/04 07:29:33;;;;;;;4.63;4.00;;;29.30;47.70;;;;;;5046734;28;20711;-86
2023/09/04 07:32:00;;;;;;;4.35;3.45;;;29.30;48.70;;;;;;5032158;28;20009;-86
2023/09/04 07:34:25;;;;;;;5.20;3.60;;;29.50;48.40;;;;;;5028787;28;20276;-85
2023/09/04 07:36:52;;;;;;;4.65;3.58;;;30.00;48.00;;;;;;5043196;28;20036;-85
2023/09/04 07:39:17;;;;;;;3.85;3.47;;;30.60;47.50;;;;;;5038349;28;20506;-84
2023/09/04 07:41:43;;;;;;;4.32;2.90;;;30.90;46.90;;;;;;5046608;28;20029;-85
2023/09/04 07:44:09;;;;;;;5.60;3.10;;;31.40;46.70;;;;;;5046680;28;20132;-85
2023/09/04 07:46:34;;;;;;;4.22;3.63;;;32.00;46.10;;;;;;5047065;28;20021;-86
2023/09/04 07:49:00;;;;;;;5.03;3.08;;;31.60;45.20;;;;;;5028875;28;20034;-85
2023/09/04 07:51:26;;;;;;;5.10;3.70;;;31.80;45.40;;;;;;5046481;28;20010;-84
2023/09/04 07:53:51;;;;;;;4.93;3.20;;;31.80;44.50;;;;;;5047505;28;20082;-83
2023/09/04 07:56:17;;;;;;;4.35;3.40;;;31.90;44.70;;;;;;5047160;28;20040;-85
2023/09/04 07:58:44;;;;;;;4.18;3.08;;;31.50;44.30;;;;;;5043423;28;20037;-84
2023/09/04 08:01:13;;;;;;;3.17;2.80;;;31.50;45.00;;;;;;5045334;28;20056;-84
2023/09/04 08:03:40;;;;;;;4.00;3.25;;;31.40;44.70;;;;;;5047946;28;20040;-85
2023/09/04 08:06:06;;;;;;;4.88;3.10;;;31.00;44.90;;;;;;5029366;28;20423;-85
2023/09/04 08:08:31;;;;;;;3.80;3.08;;;30.80;45.40;;;;;;5055174;28;20025;-85
2023/09/04 08:10:57;;;;;;;5.93;3.97;;;31.00;45.10;;;;;;5049124;28;20041;-85
2023/09/04 08:13:23;;;;;;;4.05;3.30;;;30.70;45.00;;;;;;5048832;28;20044;-85
2023/09/04 08:15:48;;;;;;;4.65;2.97;;;30.50;45.40;;;;;;5049902;28;20060;-85
2023/09/04 08:18:14;;;;;;;5.18;3.75;;;30.80;45.20;;;;;;5029806;28;20033;-85
2023/09/04 08:20:40;;;;;;;6.53;4.38;;;30.40;45.40;;;;;;5050471;28;20347;-85
2023/09/04 08:23:07;;;;;;;6.00;4.05;;;29.00;46.50;;;;;;5049991;28;20475;-84
2023/09/04 08:25:33;;;;;;;4.35;3.40;;;27.70;48.70;;;;;;5037784;28;20051;-84
2023/09/04 08:27:59;;;;;;;4.18;3.65;;;27.00;50.30;;;;;;5048874;28;20420;-83
2023/09/04 08:30:25;;;;;;;6.30;4.25;;;26.50;51.40;;;;;;5048445;28;20104;-84
2023/09/04 08:32:50;;;;;;;5.05;4.18;;;25.90;52.70;;;;;;5048606;28;20029;-85
2023/09/04 08:35:17;;;;;;;6.60;4.85;;;25.50;53.80;;;;;;5046859;28;20056;-84
2023/09/04 08:37:43;;;;;;;5.32;4.22;;;25.20;54.60;;;;;;5049158;28;20032;-83
2023/09/04 08:40:09;;;;;;;6.00;4.60;;;25.00;55.40;;;;;;5047803;28;20038;-85
2023/09/04 08:42:38;;;;;;;5.38;3.67;;;24.60;56.20;;;;;;5048987;28;20116;-85
2023/09/04 08:45:08;;;;;;;4.85;4.22;;;24.10;57.60;;;;;;5050415;28;20104;-84
2023/09/04 08:47:41;;;;;;;6.20;4.82;;;23.90;59.00;;;;;;5032542;28;20025;-84
2023/09/04 08:50:07;;;;;;;5.65;4.78;;;23.70;60.00;;;;;;5029684;28;20119;-83
2023/09/04 08:52:35;;;;;;;5.28;4.43;;;23.60;60.80;;;;;;5031499;28;20017;-84
2023/09/04 08:55:01;;;;;;;4.82;3.95;;;23.50;61.50;;;;;;5048569;28;20036;-82
2023/09/04 08:57:29;;;;;;;5.53;4.07;;;23.40;61.80;;;;;;5031264;28;20108;-83
2023/09/04 08:59:54;;;;;;;6.50;5.10;;;23.40;62.20;;;;;;5048491;28;20072;-83
2023/09/04 09:02:20;;;;;;;6.07;4.70;;;23.40;62.30;;;;;;5028141;28;20056;-84
2023/09/04 09:04:47;;;;;;;6.00;5.22;;;23.40;62.50;;;;;;5050954;28;20057;-84
2023/09/04 09:07:14;;;;;;;5.57;4.65;;;23.40;62.90;;;;;;5024911;28;20025;-83
2023/09/04 09:09:46;;;;;;;4.78;3.90;;;23.40;62.70;;;;;;5049094;28;20041;-84
2023/09/04 09:12:12;;;;;;;5.38;4.50;;;23.40;62.80;;;;;;5050833;28;20342;-84
2023/09/04 09:14:38;;;;;;;5.57;4.70;;;23.40;62.80;;;;;;5048927;28;20094;-84
2023/09/04 09:17:10;;;;;;;6.05;4.13;;;23.30;62.70;;;;;;5042442;28;20083;-84
2023/09/04 09:19:37;;;;;;;8.50;4.63;;;23.40;63.00;;;;;;5042199;28;20037;-84
2023/09/04 09:22:13;;;;;;;5.50;4.55;;;23.40;63.30;;;;;;5050067;28;20028;-84
2023/09/04 09:24:54;;;;;;;6.40;4.68;;;23.40;63.50;;;;;;5032428;28;20090;-84
2023/09/04 09:27:24;;;;;;;5.00;3.80;;;23.40;63.40;;;;;;5045946;28;20376;-84
2023/09/04 09:29:51;;;;;;;5.57;4.25;;;23.50;63.30;;;;;;5036584;28;20033;-84
2023/09/04 09:32:18;;;;;;;5.78;4.38;;;23.60;63.60;;;;;;5056683;28;20441;-84
2023/09/04 09:34:51;;;;;;;5.00;3.60;;;23.70;63.30;;;;;;5049020;28;20120;-84
2023/09/04 09:37:19;;;;;;;5.30;4.10;;;23.80;63.40;;;;;;5033077;28;20179;-83
2023/09/04 09:39:44;;;;;;;7.03;3.90;;;23.90;63.20;;;;;;5048184;28;20056;-84
2023/09/04 09:42:11;;;;;;;6.00;4.82;;;23.90;62.90;;;;;;5050792;28;20028;-84
2023/09/04 09:44:36;;;;;;;4.80;3.88;;;23.80;62.50;;;;;;5050363;28;20035;-84
2023/09/04 09:47:02;;;;;;;5.30;4.63;;;23.80;62.60;;;;;;5036014;28;20033;-83
2023/09/04 09:49:30;;;;;;;6.65;5.20;;;23.80;62.80;;;;;;5049305;28;20029;-84
2023/09/04 09:51:56;;;;;;;5.53;4.50;;;23.80;63.00;;;;;;5040337;28;20032;-84
2023/09/04 09:54:43;;;;;;;4.22;3.75;;;23.80;63.10;;;;;;5050985;28;20029;-85
2023/09/04 09:57:11;;;;;;;7.15;4.80;;;23.80;63.10;;;;;;5046902;28;20058;-85
2023/09/04 09:59:40;;;;;;;6.05;5.43;;;23.70;63.20;;;;;;5042882;28;20278;-85
2023/09/04 10:02:06;;;;;;;7.50;4.72;;;23.60;63.20;;;;;;5046024;28;20375;-83
2023/09/04 10:04:34;;;;;;;5.97;5.10;;;23.60;63.60;;;;;;5034131;28;20029;-83
2023/09/04 10:07:03;;;;;;;5.90;4.15;;;23.50;63.90;;;;;;5042370;28;20059;-82
2023/09/04 10:09:37;;;;;;;7.60;4.60;;;23.60;64.00;;;;;;5042570;28;20418;-83
2023/09/04 10:12:31;;;;;;;6.75;4.70;;;23.70;64.00;;;;;;5049107;28;20036;-83
2023/09/04 10:14:59;;;;;;;5.72;4.60;;;23.80;64.10;;;;;;4999928;28;20348;-84
2023/09/04 10:17:49;;;;;;;5.32;4.82;;;23.90;63.90;;;;;;5033937;28;20032;-83
2023/09/04 10:20:15;;;;;;;4.05;3.45;;;23.80;63.50;;;;;;5052871;28;20179;-83
2023/09/04 10:22:52;;;;;;;4.75;3.50;;;23.90;63.10;;;;;;5051934;28;20527;-83
2023/09/04 10:25:37;;;;;;;4.68;3.70;;;24.00;62.20;;;;;;5048795;28;20025;-83
2023/09/04 10:28:16;;;;;;;3.97;3.13;;;24.00;61.70;;;;;;5050572;28;20337;-85
2023/09/04 10:30:44;;;;;;;3.90;3.35;;;24.00;61.50;;;;;;5046239;28;20416;-85
2023/09/04 10:33:13;;;;;;;4.45;3.00;;;24.20;61.70;;;;;;5051628;28;20418;-86
2023/09/04 10:35:39;;;;;;;5.07;3.13;;;24.30;61.50;;;;;;5046779;28;20025;-85
2023/09/04 10:38:06;;;;;;;3.42;2.65;;;24.40;60.50;;;;;;5048740;28;20016;-84
2023/09/04 10:40:33;;;;;;;4.28;3.20;;;24.50;60.50;;;;;;5030390;28;20045;-84
2023/09/04 10:43:03;;;;;;;4.63;3.10;;;24.50;59.90;;;;;;5041544;28;20021;-88
2023/09/04 10:45:29;;;;;;;4.75;3.13;;;24.50;59.10;;;;;;5032296;28;20376;-88
2023/09/04 10:47:56;;;;;;;3.80;3.17;;;24.40;58.90;;;;;;5050118;28;20113;-86
2023/09/04 10:50:28;;;;;;;5.63;2.90;;;24.50;59.10;;;;;;5051819;28;21799;-88
2023/09/04 10:52:54;;;;;;;3.47;2.60;;;24.60;59.10;;;;;;5050657;28;20051;-85
2023/09/04 10:55:20;;;;;;;3.17;2.30;;;24.70;58.90;;;;;;5041280;28;20021;-84
2023/09/04 10:57:58;;;;;;;3.85;2.90;;;24.80;58.60;;;;;;5054896;28;20035;-85
2023/09/04 11:00:33;;;;;;;3.88;3.17;;;24.90;58.40;;;;;;5050286;28;20028;-89
2023/09/04 11:03:18;;;;;;;3.65;2.78;;;24.90;58.40;;;;;;5028086;28;20388;-91
2023/09/04 11:06:02;;;;;;;4.15;3.00;;;24.90;58.50;;;;;;5040883;28;20398;-94
2023/09/04 11:08:29;;;;;;;3.58;2.42;;;25.10;58.20;;;;;;5065548;28;20033;-92
2023/09/04 11:11:05;;;;;;;2.92;2.22;;;25.10;58.30;;;;;;5053823;28;20080;-92
2023/09/04 11:13:37;;;;;;;4.35;3.15;;;25.20;58.20;;;;;;5053806;28;20120;-91
2023/09/04 11:16:04;;;;;;;4.90;3.00;;;25.00;57.30;;;;;;5054038;28;20547;-92
2023/09/04 11:18:37;;;;;;;5.07;2.90;;;25.10;57.90;;;;;;5036045;28;20095;-91
2023/09/04 11:21:04;;;;;;;4.07;2.90;;;25.20;57.90;;;;;;5057396;28;20106;-91
2023/09/04 11:23:31;;;;;;;3.85;2.97;;;25.20;57.40;;;;;;5045423;28;20089;-91
2023/09/04 11:25:57;;;;;;;3.70;2.80;;;25.20;57.80;;;;;;5053533;28;20055;-91
2023/09/04 11:28:26;;;;;;;4.30;3.20;;;25.30;57.40;;;;;;5051599;28;20096;-90
2023/09/04 11:30:53;;;;;;;4.97;3.30;;;25.40;57.40;;;;;;5050104;28;20024;-86
2023/09/04 11:33:22;;;;;;;3.70;3.30;;;25.40;57.30;;;;;;5058147;28;20506;-86
2023/09/04 11:35:57;;;;;;;4.18;3.20;;;25.30;57.20;;;;;;5039278;28;20021;-87
2023/09/04 11:38:28;;;;;;;3.00;2.25;;;25.20;57.40;;;;;;5049100;28;20098;-87
2023/09/04 11:40:54;;;;;;;4.65;3.33;;;25.40;57.90;;;;;;5057603;28;20025;-86
2023/09/04 11:43:22;;;;;;;4.85;3.38;;;25.50;57.90;;;;;;5052173;28;20028;-86
2023/09/04 11:45:55;;;;;;;5.68;3.90;;;25.40;57.80;;;;;;5057791;28;20021;-83
2023/09/04 11:48:24;;;;;;;5.45;4.10;;;25.30;57.90;;;;;;5045909;28;20119;-83
2023/09/04 11:50:50;;;;;;;4.95;3.63;;;25.30;58.10;;;;;;5039606;28;20035;-84
2023/09/04 11:53:18;;;;;;;5.15;3.97;;;25.40;58.40;;;;;;5056272;28;20387;-83
2023/09/04 11:55:44;;;;;;;6.70;5.15;;;25.50;58.30;;;;;;5040240;28;20028;-83
2023/09/04 11:58:10;;;;;;;5.45;4.28;;;25.50;57.90;;;;;;5059331;28;20028;-83
2023/09/04 12:00:36;;;;;;;5.03;4.53;;;25.30;58.20;;;;;;5057899;28;20036;-83
2023/09/04 12:03:02;;;;;;;5.03;4.35;;;25.30;58.50;;;;;;5056799;28;20025;-84
2023/09/04 12:05:27;;;;;;;3.45;3.10;;;25.30;58.60;;;;;;5055402;28;20024;-83
2023/09/04 12:07:53;;;;;;;5.28;4.75;;;25.50;58.70;;;;;;5058021;28;20029;-83
2023/09/04 12:10:18;;;;;;;5.85;4.65;;;25.40;58.30;;;;;;5045691;28;20023;-86
2023/09/04 12:12:44;;;;;;;4.80;4.13;;;25.30;58.30;;;;;;5060622;28;20483;-84
2023/09/04 12:15:10;;;;;;;4.80;4.25;;;25.30;58.60;;;;;;5060557;28;20028;-84
2023/09/04 12:17:35;;;;;;;5.88;4.95;;;25.40;58.10;;;;;;5059057;28;20017;-85
2023/09/04 12:20:10;;;;;;;5.75;5.07;;;25.40;57.80;;;;;;5057172;28;20498;-84
2023/09/04 12:22:36;;;;;;;6.28;4.00;;;25.50;57.90;;;;;;5040787;28;20021;-84
2023/09/04 12:25:08;;;;;;;4.28;3.83;;;25.60;58.40;;;;;;5062955;28;20050;-85
2023/09/04 12:27:35;;;;;;;4.80;4.10;;;25.90;58.50;;;;;;5041169;28;20029;-85
2023/09/04 12:30:01;;;;;;;5.63;4.00;;;26.00;57.80;;;;;;5055880;28;20135;-84
2023/09/04 12:32:26;;;;;;;3.90;3.47;;;26.00;57.90;;;;;;5037799;28;20056;-84
2023/09/04 12:35:06;;;;;;;5.07;4.20;;;26.10;57.80;;;;;;5059647;28;20021;-84
2023/09/04 12:37:36;;;;;;;5.22;4.10;;;26.20;57.40;;;;;;5035091;28;20020;-84
2023/09/04 12:40:02;;;;;;;5.20;4.03;;;26.20;57.00;;;;;;5037589;28;20110;-83
2023/09/04 12:42:28;;;;;;;5.28;4.03;;;26.30;56.90;;;;;;5040330;28;20021;-83
2023/09/04 12:44:54;;;;;;;5.68;4.50;;;26.50;56.80;;;;;;5054539;28;20033;-85
2023/09/04 12:47:21;;;;;;;4.60;3.65;;;26.30;55.80;;;;;;5059178;28;20081;-83
2023/09/04 12:49:48;;;;;;;4.32;3.15;;;26.20;56.30;;;;;;5041851;28;20032;-85